Time;durP1;ratioP1;P1;durP2;ratioP2;P2;SDS_P1;SDS_P2;PMS_P1;PMS_P2;Temp;Humidity;BMP_temperature;BMP_pressure;BME280_temperature;BME280_humidity;BME280_pressure;Samples;Min_cycle;Max_cycle;Signal;HPM_P1;HPM_P2
2023/07/04 00:02:39;;;;;;;9.52;4.57;;;;;;;17.21;100.00;99941.16;6137718;28;20046;-88
2023/07/04 00:05:47;;;;;;;8.75;3.78;;;;;;;17.31;100.00;99940.91;6135184;28;20499;-87
2023/07/04 00:08:50;;;;;;;11.00;3.70;;;;;;;17.40;100.00;99940.66;6139274;28;20122;-88
2023/07/04 00:11:52;;;;;;;6.68;3.20;;;;;;;17.41;100.00;99946.69;6137300;28;20043;-89
2023/07/04 00:14:54;;;;;;;10.60;3.42;;;;;;;17.46;100.00;99951.38;6137217;28;20059;-87
2023/07/04 00:17:55;;;;;;;7.80;3.30;;;;;;;17.52;100.00;99948.06;6137418;28;20368;-87
2023/07/04 00:21:03;;;;;;;7.50;2.85;;;;;;;17.53;100.00;99950.47;6136561;28;20043;-87
2023/07/04 00:24:05;;;;;;;7.82;3.15;;;;;;;17.60;100.00;99958.44;6141897;28;20046;-87
2023/07/04 00:27:07;;;;;;;10.32;3.17;;;;;;;17.63;100.00;99950.22;6125673;28;20150;-88
2023/07/04 00:30:10;;;;;;;5.75;3.05;;;;;;;17.59;100.00;99949.78;6136578;28;20549;-88
2023/07/04 00:33:13;;;;;;;9.00;3.15;;;;;;;17.55;100.00;99951.13;6148684;28;20084;-88
2023/07/04 00:36:17;;;;;;;8.48;3.40;;;;;;;17.52;100.00;99954.09;6136678;28;20055;-88
2023/07/04 00:39:19;;;;;;;6.40;2.92;;;;;;;17.52;100.00;99975.03;6136525;28;20336;-88
2023/07/04 00:42:21;;;;;;;9.27;3.30;;;;;;;17.42;100.00;99984.97;6135293;28;20046;-89
2023/07/04 00:45:27;;;;;;;9.25;2.85;;;;;;;17.24;100.00;99993.13;6137007;28;20546;-89
2023/07/04 00:48:29;;;;;;;9.15;3.13;;;;;;;17.03;100.00;99995.63;6134673;28;20078;-88
2023/07/04 00:51:31;;;;;;;8.90;2.58;;;;;;;16.90;100.00;100007.47;6152238;28;20075;-89
2023/07/04 00:54:37;;;;;;;7.38;2.80;;;;;;;16.79;100.00;100010.47;6134931;28;20051;-88
2023/07/04 00:57:38;;;;;;;13.40;3.40;;;;;;;16.67;100.00;100017.91;6139807;28;20422;-90
2023/07/04 01:00:41;;;;;;;10.35;3.10;;;;;;;16.58;100.00;100016.31;6145171;28;20078;-89
2023/07/04 01:03:42;;;;;;;10.55;3.05;;;;;;;16.53;100.00;100009.00;6136322;28;20075;-88
2023/07/04 01:06:49;;;;;;;6.95;2.83;;;;;;;16.49;100.00;100017.34;6138140;28;20040;-88
2023/07/04 01:09:57;;;;;;;5.70;2.65;;;;;;;16.45;100.00;100013.47;6155369;28;20061;-87
2023/07/04 01:13:00;;;;;;;4.00;2.50;;;;;;;16.38;100.00;100012.53;6139956;28;20047;-88
2023/07/04 01:16:31;;;;;;;3.75;2.38;;;;;;;16.39;100.00;100027.19;6136671;28;20182;-87
2023/07/04 01:19:38;;;;;;;6.07;2.95;;;;;;;16.33;100.00;100023.47;6125494;28;21057;-87
2023/07/04 01:23:01;;;;;;;5.47;2.10;;;;;;;16.24;100.00;100037.56;6135510;28;20410;-86
2023/07/04 01:26:26;;;;;;;3.50;1.70;;;;;;;16.19;100.00;100038.06;6118007;28;20047;-88
2023/07/04 01:29:30;;;;;;;7.65;1.95;;;;;;;16.12;100.00;100048.38;6142721;28;20652;-88
2023/07/04 01:32:34;;;;;;;4.18;1.33;;;;;;;16.04;100.00;100064.06;6131072;28;20525;-86
2023/07/04 01:35:36;;;;;;;6.40;1.50;;;;;;;15.99;100.00;100060.34;6135228;28;20416;-85
2023/07/04 01:38:38;;;;;;;2.97;1.27;;;;;;;15.93;100.00;100062.63;6135061;28;20062;-87
2023/07/04 01:41:45;;;;;;;2.35;1.20;;;;;;;15.85;100.00;100070.50;6134200;28;20086;-86
2023/07/04 01:44:48;;;;;;;3.15;1.30;;;;;;;15.75;100.00;100093.34;6140310;28;20754;-87
2023/07/04 01:47:50;;;;;;;3.45;1.40;;;;;;;15.04;100.00;100103.41;6123875;28;20141;-83
2023/07/04 01:50:52;;;;;;;4.95;1.40;;;;;;;14.52;100.00;100094.94;6140381;28;20441;-84
2023/07/04 01:53:55;;;;;;;4.85;2.58;;;;;;;14.20;100.00;100089.41;6140425;28;20051;-84
2023/07/04 01:56:57;;;;;;;3.58;1.25;;;;;;;14.06;100.00;100083.97;6141189;28;20043;-84
2023/07/04 01:59:59;;;;;;;2.05;1.20;;;;;;;13.80;100.00;100064.00;6146734;28;20124;-84
2023/07/04 02:03:01;;;;;;;4.35;1.42;;;;;;;13.71;100.00;100036.28;6146208;28;20117;-84
2023/07/04 02:06:05;;;;;;;3.42;1.20;;;;;;;13.79;100.00;100036.38;6144464;28;20047;-85
2023/07/04 02:09:07;;;;;;;4.30;1.10;;;;;;;13.74;100.00;100043.81;6124985;28;20418;-85
2023/07/04 02:12:10;;;;;;;2.75;1.27;;;;;;;13.81;100.00;100049.19;6139937;28;20569;-84
2023/07/04 02:15:12;;;;;;;2.72;1.40;;;;;;;13.73;100.00;100055.97;6131577;28;20146;-84
2023/07/04 02:18:14;;;;;;;3.78;1.58;;;;;;;13.61;100.00;100057.19;6135552;28;20047;-84
2023/07/04 02:21:16;;;;;;;1.40;0.90;;;;;;;13.63;100.00;100049.25;6138800;28;20047;-85
2023/07/04 02:24:18;;;;;;;5.30;1.50;;;;;;;13.74;100.00;100052.44;6138496;28;20051;-85
2023/07/04 02:27:19;;;;;;;4.65;1.27;;;;;;;13.80;100.00;100043.19;6140257;28;20120;-85
2023/07/04 02:30:21;;;;;;;2.00;1.13;;;;;;;13.90;100.00;100038.69;6152900;28;20035;-86
2023/07/04 02:33:24;;;;;;;2.58;1.20;;;;;;;13.96;100.00;100042.44;6147131;28;20512;-85
2023/07/04 02:36:25;;;;;;;1.52;1.25;;;;;;;13.93;100.00;100051.38;6121336;28;20036;-86
2023/07/04 02:39:29;;;;;;;2.67;1.00;;;;;;;13.92;100.00;100039.34;6137823;28;20410;-86
2023/07/04 02:42:31;;;;;;;2.67;1.10;;;;;;;13.97;100.00;100041.50;6141324;28;20047;-85
2023/07/04 02:45:34;;;;;;;4.22;1.00;;;;;;;14.00;100.00;100039.38;6151482;28;20054;-87
2023/07/04 02:48:36;;;;;;;1.58;1.08;;;;;;;14.09;100.00;100037.66;6123486;28;20054;-86
2023/07/04 02:51:39;;;;;;;2.63;1.30;;;;;;;14.16;100.00;100040.44;6139946;28;20561;-86
2023/07/04 02:54:42;;;;;;;2.67;1.08;;;;;;;14.28;100.00;100044.38;6122990;29;20392;-86
2023/07/04 02:57:44;;;;;;;2.65;1.20;;;;;;;14.22;100.00;100047.63;6138480;28;20047;-86
2023/07/04 03:00:50;;;;;;;2.45;0.95;;;;;;;14.35;100.00;100049.78;6149445;28;20043;-85
2023/07/04 03:03:54;;;;;;;2.72;1.00;;;;;;;14.35;100.00;100053.19;6138819;28;20062;-86
2023/07/04 03:06:58;;;;;;;2.47;1.30;;;;;;;14.35;100.00;100065.41;6140694;28;20441;-86
2023/07/04 03:10:01;;;;;;;3.78;1.15;;;;;;;14.35;100.00;100065.41;6139714;28;20126;-87
2023/07/04 03:13:05;;;;;;;3.38;1.48;;;;;;;14.41;100.00;100068.22;6132493;28;20052;-86
2023/07/04 03:16:11;;;;;;;3.10;1.10;;;;;;;14.39;100.00;100069.34;6134375;28;20110;-87
2023/07/04 03:19:16;;;;;;;3.38;0.90;;;;;;;14.40;100.00;100079.56;6139684;28;20174;-87
2023/07/04 03:22:19;;;;;;;3.45;1.27;;;;;;;14.41;100.00;100083.03;6128823;28;20246;-87
2023/07/04 03:25:22;;;;;;;2.83;1.20;;;;;;;14.39;100.00;100082.34;6136885;28;20051;-87
2023/07/04 03:28:29;;;;;;;3.35;1.08;;;;;;;14.31;100.00;100090.13;6117875;28;20051;-87
2023/07/04 03:31:32;;;;;;;3.03;1.40;;;;;;;14.28;100.00;100091.25;6136375;28;20095;-86
2023/07/04 03:34:35;;;;;;;4.22;1.40;;;;;;;14.06;100.00;100097.00;6125359;29;20051;-86
2023/07/04 03:37:37;;;;;;;5.07;1.67;;;;;;;13.91;100.00;100094.13;6146494;28;20121;-86
2023/07/04 03:40:39;;;;;;;4.15;1.33;;;;;;;13.84;100.00;100093.94;6137975;28;20066;-85
2023/07/04 03:43:40;;;;;;;2.00;1.20;;;;;;;13.84;100.00;100086.16;6139681;28;20070;-85
2023/07/04 03:46:42;;;;;;;3.67;1.40;;;;;;;13.81;100.00;100077.81;6139452;28;20063;-85
2023/07/04 03:49:45;;;;;;;3.42;1.40;;;;;;;13.71;100.00;100094.38;6140115;28;20077;-85
2023/07/04 03:52:46;;;;;;;3.35;1.27;;;;;;;13.70;100.00;100097.91;6139783;28;20043;-86
2023/07/04 03:55:50;;;;;;;3.20;1.35;;;;;;;13.68;100.00;100092.03;6140297;28;20043;-85
2023/07/04 03:58:51;;;;;;;2.17;1.02;;;;;;;13.68;100.00;100089.44;6138587;28;20048;-85
2023/07/04 04:01:53;;;;;;;4.90;1.58;;;;;;;13.76;100.00;100092.13;6149223;28;20051;-86
2023/07/04 04:04:55;;;;;;;3.55;1.17;;;;;;;13.85;100.00;100105.16;6139465;28;20676;-85
2023/07/04 04:07:57;;;;;;;2.45;1.10;;;;;;;13.90;100.00;100103.72;6137719;28;20071;-86
2023/07/04 04:11:02;;;;;;;4.32;1.40;;;;;;;14.02;100.00;100111.28;6138763;28;20051;-86
2023/07/04 04:14:04;;;;;;;4.70;1.63;;;;;;;14.21;100.00;100118.91;6139038;28;20044;-86
2023/07/04 04:17:06;;;;;;;3.42;1.48;;;;;;;14.31;100.00;100106.56;6143243;28;20501;-86
2023/07/04 04:20:10;;;;;;;3.13;1.17;;;;;;;14.35;100.00;100107.88;6137575;28;20084;-86
2023/07/04 04:23:15;;;;;;;1.98;1.10;;;;;;;14.48;100.00;100102.22;6139964;28;20043;-86
2023/07/04 04:26:21;;;;;;;2.97;1.00;;;;;;;14.55;100.00;100102.47;6142715;28;20035;-86
2023/07/04 04:29:23;;;;;;;2.70;1.20;;;;;;;14.65;100.00;100098.75;6139865;28;20062;-86
2023/07/04 04:32:25;;;;;;;7.45;1.52;;;;;;;14.78;100.00;100095.72;6138527;28;20046;-86
2023/07/04 04:35:27;;;;;;;4.28;1.20;;;;;;;14.84;100.00;100105.47;6143637;28;20043;-86
2023/07/04 04:38:29;;;;;;;4.07;1.17;;;;;;;14.80;100.00;100104.16;6147721;28;20561;-86
2023/07/04 04:41:32;;;;;;;7.13;1.30;;;;;;;14.77;100.00;100106.28;6141934;28;20047;-86
2023/07/04 04:44:34;;;;;;;2.28;1.00;;;;;;;14.77;100.00;100096.66;6146451;28;20050;-86
2023/07/04 04:47:36;;;;;;;2.50;1.27;;;;;;;14.81;100.00;100102.41;6143623;28;20121;-86
2023/07/04 04:50:43;;;;;;;3.75;1.10;;;;;;;14.99;100.00;100108.28;6138119;28;20039;-86
2023/07/04 04:53:47;;;;;;;2.83;1.10;;;;;;;15.18;100.00;100112.41;6137961;28;20413;-87
2023/07/04 04:56:50;;;;;;;1.45;0.90;;;;;;;15.24;100.00;100123.97;6140645;28;20081;-87
2023/07/04 04:59:52;;;;;;;3.85;1.00;;;;;;;15.20;100.00;100122.66;6149593;28;20486;-86
2023/07/04 05:02:56;;;;;;;2.17;1.00;;;;;;;15.23;100.00;100120.56;6137533;28;20082;-86
2023/07/04 05:06:02;;;;;;;1.73;1.00;;;;;;;15.29;100.00;100121.69;6154850;28;20050;-86
2023/07/04 05:09:04;;;;;;;3.75;1.15;;;;;;;15.34;100.00;100122.03;6147441;28;20039;-87
2023/07/04 05:12:06;;;;;;;1.58;1.17;;;;;;;15.45;100.00;100119.09;6140221;28;20102;-87
2023/07/04 05:15:08;;;;;;;2.40;1.00;;;;;;;15.46;100.00;100123.31;6138452;28;20044;-86
2023/07/04 05:18:10;;;;;;;4.38;1.40;;;;;;;15.45;100.00;100120.88;6148727;28;20108;-87
2023/07/04 05:21:23;;;;;;;3.38;1.48;;;;;;;15.48;100.00;100133.63;6120630;28;20469;-87
2023/07/04 05:24:25;;;;;;;3.80;1.45;;;;;;;15.49;100.00;100135.22;6139094;28;20174;-87
2023/07/04 05:27:27;;;;;;;2.47;1.40;;;;;;;15.54;100.00;100132.13;6137489;28;20103;-87
2023/07/04 05:30:29;;;;;;;3.45;1.30;;;;;;;15.60;100.00;100137.53;6134951;28;20187;-87
2023/07/04 05:33:37;;;;;;;1.70;1.33;;;;;;;15.74;100.00;100143.09;6136501;28;20129;-87
2023/07/04 05:36:40;;;;;;;5.47;1.42;;;;;;;15.88;100.00;100142.44;6139871;28;20231;-87
2023/07/04 05:39:43;;;;;;;5.28;1.30;;;;;;;15.99;100.00;100139.47;6137387;28;20424;-88
2023/07/04 05:42:47;;;;;;;2.15;1.30;;;;;;;15.98;100.00;100144.88;6143790;28;20046;-87
2023/07/04 05:45:50;;;;;;;3.28;1.58;;;;;;;15.94;100.00;100152.19;6142011;28;20118;-88
2023/07/04 05:48:53;;;;;;;4.05;1.58;;;;;;;16.01;100.00;100150.56;6136911;28;20036;-88
2023/07/04 05:51:55;;;;;;;4.15;1.38;;;;;;;16.08;100.00;100146.31;6139140;28;20058;-87
2023/07/04 05:55:00;;;;;;;3.47;1.92;;;;;;;16.21;100.00;100150.19;6139135;28;20045;-87
2023/07/04 05:58:02;;;;;;;3.47;1.38;;;;;;;16.35;100.00;100155.53;6138860;28;20049;-87
2023/07/04 06:01:28;;;;;;;2.92;1.75;;;;;;;16.64;100.00;100158.53;6136887;28;20071;-87
2023/07/04 06:04:30;;;;;;;4.53;1.70;;;;;;;16.90;100.00;100163.53;6125570;28;20099;-87
2023/07/04 06:07:32;;;;;;;4.68;1.67;;;;;;;16.99;100.00;100158.09;6149576;28;20056;-87
2023/07/04 06:10:35;;;;;;;3.08;1.67;;;;;;;16.98;100.00;100158.25;6129235;28;20035;-87
2023/07/04 06:13:37;;;;;;;4.10;1.40;;;;;;;16.89;100.00;100167.91;6137444;28;20039;-87
2023/07/04 06:16:39;;;;;;;3.75;1.75;;;;;;;16.86;100.00;100163.03;6138308;28;20047;-87
2023/07/04 06:19:41;;;;;;;6.55;1.70;;;;;;;16.75;100.00;100150.34;6137055;28;20048;-86
2023/07/04 06:22:43;;;;;;;2.47;1.65;;;;;;;16.64;100.00;100156.72;6136126;28;20035;-87
2023/07/04 06:25:46;;;;;;;2.58;1.48;;;;;;;16.89;100.00;100160.09;6130973;28;20469;-87
2023/07/04 06:28:50;;;;;;;5.97;1.90;;;;;;;17.19;100.00;100163.69;6138112;28;20538;-87
2023/07/04 06:31:51;;;;;;;2.90;1.52;;;;;;;17.32;100.00;100178.81;6141673;28;20078;-87
2023/07/04 06:34:54;;;;;;;3.90;1.70;;;;;;;17.44;100.00;100176.63;6134187;28;20119;-87
2023/07/04 06:37:59;;;;;;;3.33;1.33;;;;;;;17.61;100.00;100180.75;6156735;28;20042;-87
2023/07/04 06:41:03;;;;;;;4.35;1.55;;;;;;;17.91;100.00;100177.41;6141836;28;20046;-87
2023/07/04 06:44:05;;;;;;;4.32;1.70;;;;;;;18.18;100.00;100184.66;6140691;28;20497;-87
2023/07/04 06:47:07;;;;;;;3.60;1.80;;;;;;;18.39;100.00;100199.69;6155737;28;20054;-87
2023/07/04 06:50:09;;;;;;;3.88;1.90;;;;;;;18.37;100.00;100203.50;6140128;28;20529;-87
2023/07/04 06:53:11;;;;;;;4.90;2.10;;;;;;;18.28;100.00;100211.44;6129701;28;20035;-87
2023/07/04 06:56:14;;;;;;;4.45;1.92;;;;;;;18.34;100.00;100212.53;6143231;28;20044;-87
2023/07/04 06:59:16;;;;;;;5.18;2.20;;;;;;;18.29;100.00;100212.25;6147611;28;20071;-87
2023/07/04 07:02:18;;;;;;;3.42;1.55;;;;;;;18.30;100.00;100208.63;6141103;28;20050;-87
2023/07/04 07:05:20;;;;;;;5.40;2.38;;;;;;;18.33;100.00;100208.25;6150209;28;20113;-87
2023/07/04 07:08:26;;;;;;;6.03;2.40;;;;;;;18.39;100.00;100206.75;6144128;28;20058;-87
2023/07/04 07:11:28;;;;;;;5.20;2.35;;;;;;;18.18;100.00;100205.63;6149307;28;20074;-87
2023/07/04 07:14:30;;;;;;;6.32;2.80;;;;;;;17.90;100.00;100202.78;6141927;28;20073;-87
2023/07/04 07:17:33;;;;;;;7.93;3.00;;;;;;;17.79;100.00;100211.84;6153503;28;20545;-87
2023/07/04 07:20:38;;;;;;;5.38;2.85;;;;;;;17.84;100.00;100212.16;6146161;28;20046;-87
2023/07/04 07:23:41;;;;;;;5.65;3.03;;;;;;;18.09;100.00;100214.56;6145338;28;20062;-87
2023/07/04 07:26:43;;;;;;;6.28;3.65;;;;;;;18.54;100.00;100220.66;6144060;28;20098;-87
2023/07/04 07:29:48;;;;;;;5.85;3.90;;;;;;;19.04;100.00;100231.41;6144516;28;20047;-87
2023/07/04 07:32:50;;;;;;;8.15;3.50;;;;;;;19.03;100.00;100230.63;6147547;28;20046;-87
2023/07/04 07:35:53;;;;;;;6.57;3.25;;;;;;;19.08;100.00;100244.00;6141008;28;20051;-88
2023/07/04 07:38:59;;;;;;;9.65;3.40;;;;;;;19.25;100.00;100238.50;6154437;28;20038;-87
2023/07/04 07:42:01;;;;;;;4.50;2.95;;;;;;;19.45;100.00;100250.06;6153604;28;20043;-88
2023/07/04 07:45:03;;;;;;;7.47;3.40;;;;;;;19.36;100.00;100243.28;6140485;28;20043;-88
2023/07/04 07:48:05;;;;;;;7.40;3.03;;;;;;;19.15;100.00;100236.19;6142209;28;20057;-88
2023/07/04 07:51:11;;;;;;;7.05;3.38;;;;;;;19.04;100.00;100237.47;6129402;28;20039;-88
2023/07/04 07:54:14;;;;;;;6.20;3.00;;;;;;;19.29;100.00;100235.34;6147451;28;20043;-88
2023/07/04 07:57:16;;;;;;;4.78;2.45;;;;;;;19.44;100.00;100247.63;6132786;28;20054;-88
2023/07/04 08:00:19;;;;;;;6.40;3.15;;;;;;;19.72;100.00;100245.09;6142267;28;20046;-89
2023/07/04 08:03:20;;;;;;;5.35;2.47;;;;;;;19.76;100.00;100243.72;6138929;28;20051;-88
2023/07/04 08:06:33;;;;;;;4.38;2.35;;;;;;;19.61;100.00;100242.94;6142890;28;20036;-88
2023/07/04 08:09:35;;;;;;;4.18;2.38;;;;;;;19.27;100.00;100247.03;6144064;28;20489;-88
2023/07/04 08:12:36;;;;;;;5.28;2.67;;;;;;;19.00;100.00;100245.88;6139631;28;20043;-88
2023/07/04 08:15:38;;;;;;;5.65;2.38;;;;;;;18.99;100.00;100246.91;6141467;28;20098;-88
2023/07/04 08:18:40;;;;;;;6.75;2.30;;;;;;;19.02;100.00;100251.78;6142090;28;20093;-88
2023/07/04 08:21:45;;;;;;;5.47;2.30;;;;;;;19.12;100.00;100249.66;6139880;28;20047;-89
2023/07/04 08:24:47;;;;;;;4.78;2.30;;;;;;;19.29;100.00;100255.53;6142347;28;20509;-88
2023/07/04 08:27:49;;;;;;;5.57;2.17;;;;;;;19.43;100.00;100252.06;6134537;28;20073;-89
2023/07/04 08:30:51;;;;;;;9.07;2.13;;;;;;;19.72;100.00;100245.09;6144449;28;20602;-88
2023/07/04 08:33:54;;;;;;;3.53;2.05;;;;;;;19.80;100.00;100247.59;6139058;28;20635;-89
2023/07/04 08:36:56;;;;;;;3.85;1.80;;;;;;;19.36;100.00;100257.22;6136256;28;20050;-88
2023/07/04 08:39:58;;;;;;;5.55;1.90;;;;;;;19.23;100.00;100251.84;6128512;28;20506;-89
2023/07/04 08:43:05;;;;;;;4.18;1.77;;;;;;;19.22;100.00;100265.94;6139132;28;20039;-88
2023/07/04 08:46:12;;;;;;;6.45;1.90;;;;;;;19.13;100.00;100265.25;6137310;28;20158;-89
2023/07/04 08:49:38;;;;;;;3.70;1.80;;;;;;;19.13;100.00;100260.00;6134742;28;20035;-90
2023/07/04 08:52:53;;;;;;;4.82;1.80;;;;;;;19.43;100.00;100270.44;6137823;28;20086;-89
2023/07/04 08:56:14;;;;;;;3.60;1.98;;;;;;;19.60;100.00;100265.72;6134229;28;20560;-89
2023/07/04 08:59:41;;;;;;;3.92;1.77;;;;;;;19.58;100.00;100273.00;6121229;28;20043;-90
2023/07/04 09:02:52;;;;;;;3.92;1.70;;;;;;;19.72;100.00;100281.84;6141162;28;20067;-89
2023/07/04 09:06:23;;;;;;;2.72;1.65;;;;;;;20.07;100.00;100282.78;6135864;28;20110;-90
2023/07/04 09:09:59;;;;;;;3.25;1.90;;;;;;;20.17;100.00;100271.94;6136110;28;20051;-88
2023/07/04 09:13:05;;;;;;;3.88;1.85;;;;;;;20.09;100.00;100282.59;6137750;28;20043;-89
2023/07/04 09:16:11;;;;;;;7.35;2.95;;;;;;;19.72;100.00;100301.03;6149393;28;20553;-88
2023/07/04 09:19:18;;;;;;;4.78;1.67;;;;;;;19.75;100.00;100291.97;6138813;28;20099;-89
2023/07/04 09:22:19;;;;;;;4.95;1.88;;;;;;;19.81;100.00;100286.00;6137984;28;20416;-89
2023/07/04 09:25:22;;;;;;;3.65;1.70;;;;;;;20.11;100.00;100299.00;6120543;29;20040;-88
2023/07/04 09:28:25;;;;;;;5.07;2.10;;;;;;;20.55;100.00;100298.75;6135345;28;20600;-89
2023/07/04 09:31:32;;;;;;;2.95;2.08;;;;;;;20.74;100.00;100297.25;6132138;28;20047;-90
2023/07/04 09:34:40;;;;;;;6.35;1.88;;;;;;;20.83;100.00;100296.09;6137601;28;20039;-89
2023/07/04 09:37:58;;;;;;;6.38;1.75;;;;;;;20.92;100.00;100295.91;6138286;28;20154;-89
2023/07/04 09:41:01;;;;;;;3.17;1.80;;;;;;;20.46;100.00;100293.81;6138109;28;20051;-89
2023/07/04 09:44:14;;;;;;;7.63;1.90;;;;;;;20.31;100.00;100286.81;6140961;28;20665;-89
2023/07/04 09:47:28;;;;;;;5.60;2.22;;;;;;;20.53;100.00;100284.97;6130081;28;20402;-89
2023/07/04 09:50:37;;;;;;;7.82;2.25;;;;;;;20.46;100.00;100286.72;6119894;28;21169;-89
2023/07/04 09:53:38;;;;;;;4.03;1.95;;;;;;;20.27;100.00;100290.00;6138417;28;20047;-89
2023/07/04 09:56:41;;;;;;;5.40;1.70;;;;;;;19.95;100.00;100292.16;6139590;28;20050;-89
2023/07/04 09:59:44;;;;;;;5.18;2.13;;;;;;;19.64;100.00;100298.50;6136915;28;20043;-89
2023/07/04 10:02:52;;;;;;;5.72;2.20;;;;;;;19.54;100.00;100293.56;6136376;28;20063;-89
2023/07/04 10:05:55;;;;;;;4.57;1.83;;;;;;;19.99;100.00;100302.13;6140482;28;20401;-90
2023/07/04 10:08:57;;;;;;;4.55;2.03;;;;;;;20.31;100.00;100291.28;6142912;28;20430;-89
2023/07/04 10:12:13;;;;;;;6.00;2.45;;;;;;;20.41;100.00;100297.81;6158063;28;20043;-90
2023/07/04 10:15:24;;;;;;;7.68;2.50;;;;;;;20.39;100.00;100293.75;6151017;28;20046;-89
2023/07/04 10:18:30;;;;;;;4.47;2.38;;;;;;;20.48;100.00;100292.59;6148965;28;20066;-90
2023/07/04 10:21:39;;;;;;;4.22;2.17;;;;;;;20.85;100.00;100282.75;6146025;28;20504;-89
2023/07/04 10:24:42;;;;;;;6.47;2.50;;;;;;;20.91;100.00;100295.13;6141191;28;20126;-90
2023/07/04 10:27:51;;;;;;;3.92;2.08;;;;;;;20.51;100.00;100294.84;6137212;28;20502;-90
2023/07/04 10:30:57;;;;;;;6.60;2.75;;;;;;;20.07;100.00;100290.66;6141035;28;20047;-89
2023/07/04 10:34:05;;;;;;;7.07;2.80;;;;;;;19.86;100.00;100282.81;6128397;28;20513;-90
2023/07/04 10:37:09;;;;;;;4.45;2.67;;;;;;;19.83;100.00;100277.94;6145078;28;20039;-89
2023/07/04 10:40:14;;;;;;;6.20;2.70;;;;;;;19.93;100.00;100273.97;6149287;28;20159;-89
2023/07/04 10:43:28;;;;;;;7.80;2.60;;;;;;;20.09;100.00;100277.34;6126409;29;20098;-90
2023/07/04 10:46:39;;;;;;;6.38;2.65;;;;;;;20.44;100.00;100275.56;6130559;28;20494;-89
2023/07/04 10:49:50;;;;;;;6.32;2.70;;;;;;;20.97;100.00;100275.13;6138858;28;20506;-87
2023/07/04 10:52:52;;;;;;;9.18;3.17;;;;;;;21.26;100.00;100266.09;6141920;28;20047;-89
2023/07/04 10:56:14;;;;;;;6.85;2.92;;;;;;;21.41;100.00;100261.53;6140852;28;20567;-88
2023/07/04 10:59:30;;;;;;;7.53;2.85;;;;;;;21.14;100.00;100251.88;6140113;28;20047;-89
2023/07/04 11:02:42;;;;;;;5.63;3.47;;;;;;;20.76;100.00;100262.88;6148766;28;20142;-89
2023/07/04 11:05:49;;;;;;;7.80;3.42;;;;;;;20.29;100.00;100266.97;6130690;28;20511;-90
2023/07/04 11:08:52;;;;;;;7.00;3.70;;;;;;;20.06;100.00;100270.66;6140674;28;20050;-89
2023/07/04 11:12:01;;;;;;;7.90;3.55;;;;;;;20.23;100.00;100268.56;6147334;28;20055;-89
2023/07/04 11:15:09;;;;;;;8.70;3.53;;;;;;;20.92;100.00;100267.81;6139893;28;20494;-89
2023/07/04 11:18:18;;;;;;;9.50;3.13;;;;;;;21.75;100.00;100261.59;6138986;28;20178;-89
2023/07/04 11:21:20;;;;;;;7.68;3.63;;;;;;;21.86;100.00;100264.47;6139667;28;20086;-90
2023/07/04 11:24:22;;;;;;;8.80;3.40;;;;;;;22.02;100.00;100259.81;6142042;28;20097;-89
2023/07/04 11:27:30;;;;;;;7.60;3.70;;;;;;;22.05;100.00;100254.91;6140149;28;20039;-90
2023/07/04 11:30:34;;;;;;;7.53;3.08;;;;;;;21.73;100.00;100246.78;6131014;28;20048;-89
2023/07/04 11:33:49;;;;;;;9.65;3.65;;;;;;;21.25;100.00;100246.88;6142732;28;20052;-90
2023/07/04 11:36:58;;;;;;;6.10;3.30;;;;;;;20.74;100.00;100255.16;6139126;28;20050;-88
2023/07/04 11:40:10;;;;;;;5.45;3.20;;;;;;;20.27;100.00;100263.72;6133231;28;20075;-90
2023/07/04 11:43:21;;;;;;;5.05;3.35;;;;;;;20.04;100.00;100274.47;6138350;28;20046;-89
2023/07/04 11:46:26;;;;;;;7.40;3.42;;;;;;;19.98;100.00;100266.34;6140841;28;20454;-90
2023/07/04 11:49:30;;;;;;;7.88;3.90;;;;;;;19.91;100.00;100280.44;6139472;28;20102;-89
2023/07/04 11:52:34;;;;;;;9.30;3.90;;;;;;;19.69;100.00;100279.59;6139310;28;20038;-91
2023/07/04 11:55:36;;;;;;;8.75;3.15;;;;;;;19.47;100.00;100283.97;6149502;28;20449;-90
2023/07/04 11:58:37;;;;;;;9.68;4.05;;;;;;;19.25;100.00;100289.19;6147543;28;20532;-89
2023/07/04 12:01:51;;;;;;;8.57;3.97;;;;;;;19.06;100.00;100297.66;6147699;28;20043;-90
2023/07/04 12:04:54;;;;;;;6.35;3.50;;;;;;;18.96;100.00;100303.16;6144158;28;20035;-89
2023/07/04 12:08:01;;;;;;;7.60;3.35;;;;;;;18.94;100.00;100299.91;6139886;28;20121;-90
2023/07/04 12:11:19;;;;;;;9.52;3.20;;;;;;;18.83;100.00;100316.91;6140251;28;20118;-90
2023/07/04 12:14:23;;;;;;;8.00;3.38;;;;;;;18.82;100.00;100317.88;6146397;28;20050;-91
2023/07/04 12:17:24;;;;;;;6.28;3.20;;;;;;;18.88;100.00;100325.06;6129948;28;20048;-91
2023/07/04 12:20:29;;;;;;;7.85;3.00;;;;;;;19.16;100.00;100316.53;6146715;28;20038;-89
2023/07/04 12:23:32;;;;;;;10.93;3.92;;;;;;;19.99;100.00;100325.75;6152630;28;20042;-91
2023/07/04 12:26:34;;;;;;;8.10;3.42;;;;;;;20.86;100.00;100329.91;6126285;28;20055;-90
2023/07/04 12:29:44;;;;;;;9.27;3.67;;;;;;;21.92;100.00;100320.81;6140323;28;20043;-92
2023/07/04 12:32:56;;;;;;;9.38;3.00;;;;;;;22.59;100.00;100334.84;6154435;28;20448;-93
2023/07/04 12:36:06;;;;;;;7.93;3.10;;;;;;;22.77;100.00;100335.00;6135715;28;20387;-91
2023/07/04 12:39:08;;;;;;;7.45;2.90;;;;;;;22.54;100.00;100351.28;6116249;28;20044;-90
2023/07/04 12:42:20;;;;;;;5.25;2.95;;;;;;;22.26;100.00;100337.50;6134535;28;20051;-93
2023/07/04 12:45:26;;;;;;;7.53;2.95;;;;;;;21.62;100.00;100349.34;6140143;28;20095;-91
2023/07/04 12:48:28;;;;;;;5.15;2.58;;;;;;;21.19;100.00;100342.44;6137344;28;20055;-92
2023/07/04 12:51:36;;;;;;;8.10;2.60;;;;;;;21.37;100.00;100325.31;6127375;28;20062;-91
2023/07/04 12:54:40;;;;;;;5.13;2.28;;;;;;;21.78;100.00;100338.41;6138771;28;20100;-92
2023/07/04 12:57:42;;;;;;;7.10;2.58;;;;;;;22.12;100.00;100345.38;6140930;28;20038;-91
2023/07/04 13:00:58;;;;;;;6.03;2.40;;;;;;;22.12;100.00;100347.19;6149035;28;20051;-92
2023/07/04 13:04:09;;;;;;;6.05;3.00;;;;;;;21.91;100.00;100343.72;6141856;28;20134;-91
2023/07/04 13:07:12;;;;;;;8.95;2.65;;;;;;;21.99;100.00;100348.00;6149668;28;20039;-92
2023/07/04 13:10:34;;;;;;;4.55;2.20;;;;;;;22.37;100.00;100358.00;6144029;28;20043;-92
2023/07/04 13:13:42;;;;;;;5.45;2.65;;;;;;;22.71;100.00;100345.59;6144901;28;20042;-90
2023/07/04 13:16:44;;;;;;;6.32;2.25;;;;;;;22.65;100.00;100341.94;6126713;28;20832;-92
2023/07/04 13:19:46;;;;;;;5.25;2.42;;;;;;;22.58;100.00;100351.69;6135439;28;20043;-91
2023/07/04 13:22:48;;;;;;;8.45;2.63;;;;;;;23.35;100.00;100347.50;6136721;28;20047;-90
2023/07/04 13:26:25;;;;;;;4.90;2.30;;;;;;;24.07;100.00;100336.72;6139397;28;20039;-92
2023/07/04 13:29:27;;;;;;;6.97;2.70;;;;;;;24.48;100.00;100343.34;6133835;28;20396;-91
2023/07/04 13:32:42;;;;;;;8.07;2.90;;;;;;;24.81;100.00;100347.53;6136607;28;20153;-93
2023/07/04 13:35:47;;;;;;;7.72;2.88;;;;;;;24.70;100.00;100341.13;6126365;28;20079;-93
2023/07/04 13:38:52;;;;;;;7.38;3.05;;;;;;;24.34;100.00;100350.56;6136539;28;20460;-92
2023/07/04 13:42:16;;;;;;;6.72;2.60;;;;;;;24.54;100.00;100353.06;6137702;28;20058;-93
2023/07/04 13:45:19;;;;;;;6.03;2.90;;;;;;;25.42;100.00;100349.31;6139335;28;20450;-93
2023/07/04 13:48:21;;;;;;;7.93;3.05;;;;;;;25.50;100.00;100341.03;6140494;28;20062;-91
2023/07/04 13:51:25;;;;;;;9.45;3.15;;;;;;;25.70;100.00;100350.56;6139926;28;20042;-93
2023/07/04 13:54:27;;;;;;;7.35;2.80;;;;;;;25.53;99.22;100345.88;6140363;28;20123;-92
2023/07/04 13:57:30;;;;;;;5.93;2.80;;;;;;;25.46;100.00;100353.09;6140535;28;20051;-92
2023/07/04 14:00:32;;;;;;;10.00;2.90;;;;;;;25.95;100.00;100342.47;6137920;28;20047;-92
2023/07/04 14:03:55;;;;;;;8.60;2.78;;;;;;;26.37;100.00;100343.22;6133438;28;20047;-92
2023/07/04 14:07:05;;;;;;;7.97;2.63;;;;;;;26.36;98.45;100346.94;6142084;28;20114;-92
2023/07/04 14:10:09;;;;;;;6.95;2.50;;;;;;;25.63;100.00;100341.88;6139466;28;20050;-93
2023/07/04 14:13:30;;;;;;;6.47;2.25;;;;;;;24.87;100.00;100359.91;6138038;28;20047;-93